Time;durP1;ratioP1;P1;durP2;ratioP2;P2;SDS_P1;SDS_P2;PMS_P1;PMS_P2;Temp;Humidity;BMP_temperature;BMP_pressure;BME280_temperature;BME280_humidity;BME280_pressure;Samples;Min_cycle;Max_cycle;Signal;HPM_P1;HPM_P2
2022/12/23 00:01:06;;;;;;;52.20;24.25;;;8.00;99.90;;;;;;5091567;28;20035;-62
2022/12/23 00:03:33;;;;;;;56.83;24.80;;;7.80;99.90;;;;;;5099250;28;20040;-62
2022/12/23 00:05:59;;;;;;;53.88;26.05;;;;;;;;;;5102623;28;20054;-63
2022/12/23 00:08:26;;;;;;;55.70;25.90;;;;;;;;;;5070248;28;20047;-63
2022/12/23 00:10:53;;;;;;;56.97;24.30;;;7.90;99.90;;;;;;5069945;28;20088;-60
2022/12/23 00:16:05;;;;;;;57.63;25.48;;;;;;;;;;5069023;28;20683;-62
2022/12/23 00:18:31;;;;;;;57.75;25.75;;;;;;;;;;5075913;28;20357;-63
2022/12/23 00:21:01;;;;;;;66.80;25.38;;;;;;;;;;5093944;28;20055;-62
2022/12/23 00:23:27;;;;;;;56.45;25.92;;;7.70;99.90;;;;;;5074473;28;20482;-62
2022/12/23 00:25:53;;;;;;;53.78;24.65;;;7.80;99.90;;;;;;5078098;28;20122;-62
2022/12/23 00:28:20;;;;;;;68.40;27.48;;;;;;;;;;5083867;28;20046;-62
2022/12/23 00:30:50;;;;;;;53.03;23.85;;;;;;;;;;5087512;28;20063;-62
2022/12/23 00:33:17;;;;;;;57.75;23.73;;;;;;;;;;5087919;28;20054;-63
2022/12/23 00:35:43;;;;;;;51.83;23.75;;;7.90;99.90;;;;;;5077967;28;20051;-61
2022/12/23 00:38:09;;;;;;;46.67;22.23;;;;;;;;;;5093612;28;20436;-62
2022/12/23 00:43:20;;;;;;;55.43;25.17;;;;;;;;;;5068911;28;20055;-63
2022/12/23 00:45:46;;;;;;;52.55;23.60;;;;;;;;;;5076166;28;20044;-63
2022/12/23 00:50:57;;;;;;;54.78;24.35;;;;;;;;;;5069263;28;20043;-63
2022/12/23 00:53:22;;;;;;;55.92;24.90;;;7.70;99.90;;;;;;5083372;28;20067;-62
2022/12/23 00:55:49;;;;;;;52.60;25.52;;;7.80;99.90;;;;;;5089152;28;20032;-62
2022/12/23 00:58:16;;;;;;;64.78;27.63;;;;;;;;;;5081661;28;20653;-61
2022/12/23 01:06:11;;;;;;;76.43;30.58;;;;;;;;;;5071672;28;20040;-63
2022/12/23 01:08:38;;;;;;;67.25;29.50;;;;;;;;;;5087388;28;20036;-62
2022/12/23 01:11:05;;;;;;;72.88;30.85;;;;;;;;;;5083473;28;20044;-60
2022/12/23 01:13:31;;;;;;;73.03;29.48;;;;;;;;;;5069195;28;20159;-64
2022/12/23 01:16:05;;;;;;;77.93;31.10;;;;;;;;;;5069027;28;20089;-62
2022/12/23 01:18:33;;;;;;;71.55;29.00;;;7.80;99.90;;;;;;5074265;28;20485;-64
2022/12/23 01:21:03;;;;;;;73.93;31.85;;;;;;;;;;5086937;28;20494;-60
2022/12/23 01:23:29;;;;;;;71.15;30.55;;;7.90;99.90;;;;;;5101501;28;20075;-62
2022/12/23 01:25:56;;;;;;;74.15;30.90;;;;;;;;;;5087411;28;20063;-60
2022/12/23 01:28:22;;;;;;;71.88;31.17;;;;;;;;;;5072897;28;20055;-63
2022/12/23 01:30:47;;;;;;;99.60;33.13;;;7.90;99.90;;;;;;5072826;28;20136;-62
2022/12/23 01:33:13;;;;;;;100.82;32.20;;;;;;;;;;5105513;28;20047;-62
2022/12/23 01:35:39;;;;;;;67.32;27.48;;;7.90;99.90;;;;;;5072924;28;20047;-62
2022/12/23 01:38:04;;;;;;;73.55;30.45;;;8.00;99.90;;;;;;5091084;28;20040;-61
2022/12/23 01:40:34;;;;;;;90.97;34.47;;;8.00;99.90;;;;;;5070182;28;20047;-60
2022/12/23 01:43:00;;;;;;;84.63;31.90;;;;;;;;;;5103579;28;20050;-62
2022/12/23 01:45:30;;;;;;;76.55;31.73;;;;;;;;;;5092278;28;20040;-63
2022/12/23 01:47:58;;;;;;;74.13;30.77;;;;;;;;;;5072639;28;20482;-63
2022/12/23 01:50:38;;;;;;;76.90;32.80;;;;;;;;;;5090521;28;20028;-62
2022/12/23 01:53:24;;;;;;;82.70;32.95;;;;;;;;;;5090368;28;20036;-62
2022/12/23 01:55:59;;;;;;;76.88;31.17;;;;;;;;;;5084319;28;20474;-62
2022/12/23 01:58:29;;;;;;;;;;;7.80;99.90;;;;;;5090486;28;20111;-61
2022/12/23 02:03:43;;;;;;;78.18;31.73;;;7.90;99.90;;;;;;5071771;28;20044;-60
2022/12/23 02:09:16;;;;;;;81.68;33.75;;;;;;;;;;5072094;28;20048;-63
2022/12/23 02:12:01;;;;;;;152.50;41.60;;;;;;;;;;5071873;28;20473;-63
2022/12/23 02:17:43;;;;;;;80.35;32.28;;;8.00;99.90;;;;;;5090236;28;20080;-62
2022/12/23 02:20:28;;;;;;;91.85;34.65;;;;;;;;;;5071980;28;20396;-62
2022/12/23 02:22:54;;;;;;;126.88;36.90;;;;;;;;;;5090070;28;20126;-63
2022/12/23 02:25:20;;;;;;;84.00;32.97;;;;;;;;;;5072155;28;20036;-63
2022/12/23 02:27:57;;;;;;;125.40;35.90;;;7.90;99.90;;;;;;5090531;28;20036;-61
2022/12/23 02:30:23;;;;;;;76.82;31.60;;;;;;;;;;5086060;28;20070;-62
2022/12/23 02:32:58;;;;;;;82.70;31.98;;;;;;;;;;5071361;28;20516;-62
2022/12/23 02:35:54;;;;;;;74.97;32.28;;;7.80;99.90;;;;;;5071862;28;20093;-62
2022/12/23 02:38:29;;;;;;;80.38;32.50;;;7.90;99.90;;;;;;5070930;28;20043;-62
2022/12/23 02:41:02;;;;;;;106.03;34.75;;;;;;;;;;5071757;28;20048;-63
2022/12/23 02:43:38;;;;;;;83.22;32.42;;;;;;;;;;5071437;28;20616;-62
2022/12/23 02:46:13;;;;;;;78.32;31.58;;;;;;;;;;5089802;28;20043;-61
2022/12/23 02:48:39;;;;;;;75.57;31.47;;;;;;;;;;5089370;28;20097;-62
2022/12/23 02:51:08;;;;;;;78.20;30.77;;;7.80;99.90;;;;;;5071342;28;20282;-62
2022/12/23 02:53:36;;;;;;;96.82;32.22;;;;;;;;;;5071160;28;20054;-62
2022/12/23 02:56:03;;;;;;;87.65;29.67;;;;;;;;;;5071449;28;20066;-61
2022/12/23 02:58:31;;;;;;;73.15;29.60;;;;;;;;;;5071154;28;20622;-62
2022/12/23 03:00:59;;;;;;;83.90;32.30;;;;;;;;;;5071162;28;20050;-63
2022/12/23 03:03:25;;;;;;;89.97;29.33;;;7.90;99.90;;;;;;5099063;28;20378;-62
2022/12/23 03:05:52;;;;;;;75.88;28.08;;;;;;;;;;5093193;28;20036;-62
2022/12/23 03:08:21;;;;;;;80.88;29.02;;;;;;;;;;5089099;28;20047;-63
2022/12/23 03:11:00;;;;;;;63.30;27.33;;;;;;;;;;5088759;28;20044;-62
2022/12/23 03:13:52;;;;;;;65.80;26.17;;;7.90;99.90;;;;;;5071001;28;20043;-62
2022/12/23 03:16:18;;;;;;;73.22;26.90;;;;;;;;;;5088824;28;20101;-63
2022/12/23 03:18:54;;;;;;;66.03;25.80;;;;;;;;;;5070948;28;20387;-62
2022/12/23 03:21:19;;;;;;;;;;;;;;;;;;5089454;28;20032;-63
2022/12/23 03:24:11;;;;;;;62.45;24.55;;;7.60;99.90;;;;;;5070601;28;19924;-63
2022/12/23 03:26:44;;;;;;;65.78;24.08;;;;;;;;;;5087954;28;20040;-62
2022/12/23 03:29:16;;;;;;;110.47;27.10;;;8.00;99.90;;;;;;5088981;28;20040;-62
2022/12/23 03:31:42;;;;;;;56.72;22.40;;;;;;;;;;5088829;28;20059;-62
2022/12/23 03:34:10;;;;;;;70.50;25.75;;;;;;;;;;5070327;28;20529;-63
2022/12/23 03:36:56;;;;;;;78.85;24.80;;;8.00;99.90;;;;;;5070552;28;20092;-62
2022/12/23 03:39:24;;;;;;;74.35;25.35;;;;;;;;;;5070229;28;20489;-62
2022/12/23 03:41:53;;;;;;;70.03;24.88;;;;;;;;;;5088707;28;20040;-62
2022/12/23 03:44:23;;;;;;;74.70;25.08;;;;;;;;;;5070477;28;20486;-64
2022/12/23 03:46:53;;;;;;;69.18;24.33;;;;;;;;;;5088424;28;20036;-63
2022/12/23 03:49:32;;;;;;;85.15;25.48;;;7.90;99.90;;;;;;5087680;28;20047;-63
2022/12/23 03:52:18;;;;;;;71.85;24.23;;;;;;;;;;5070664;28;20118;-61
2022/12/23 03:54:54;;;;;;;78.03;25.17;;;7.80;99.90;;;;;;5088484;28;20094;-62
2022/12/23 03:57:21;;;;;;;65.32;23.35;;;;;;;;;;5088178;28;20059;-63
2022/12/23 03:59:50;;;;;;;73.03;23.55;;;;;;;;;;5070110;28;20105;-62
2022/12/23 04:02:25;;;;;;;71.68;22.83;;;;;;;;;;5070164;28;20066;-63
2022/12/23 04:04:58;;;;;;;66.03;24.10;;;;;;;;;;5070049;28;20098;-63
2022/12/23 04:07:29;;;;;;;67.00;23.38;;;7.70;99.90;;;;;;5088169;28;20039;-62
2022/12/23 04:09:56;;;;;;;66.72;24.38;;;7.60;99.90;;;;;;5070210;28;20047;-62
2022/12/23 04:12:23;;;;;;;72.50;23.90;;;;;;;;;;5069845;28;20036;-62
2022/12/23 04:14:50;;;;;;;70.97;25.75;;;;;;;;;;5087661;28;20083;-61
2022/12/23 04:17:16;;;;;;;68.32;22.75;;;;;;;;;;5069696;28;20040;-63
2022/12/23 04:19:44;;;;;;;71.03;24.15;;;7.70;99.90;;;;;;5069259;28;20047;-62
2022/12/23 04:22:10;;;;;;;70.95;24.13;;;;;;;;;;5069834;28;20055;-62
2022/12/23 04:24:36;;;;;;;61.83;22.77;;;;;;;;;;5068934;28;20056;-62
2022/12/23 04:27:02;;;;;;;73.57;24.17;;;7.80;99.90;;;;;;5087163;28;20043;-61
2022/12/23 04:29:28;;;;;;;79.45;24.10;;;;;;;;;;5069229;28;20040;-62
2022/12/23 04:31:54;;;;;;;65.72;22.42;;;;;;;;;;5068678;28;20447;-63
2022/12/23 04:34:20;;;;;;;67.18;24.90;;;;;;;;;;5087428;28;20144;-62
2022/12/23 04:36:46;;;;;;;96.55;26.52;;;;;;;;;;5087124;28;20040;-62
2022/12/23 04:39:12;;;;;;;92.28;28.67;;;;;;;;;;5069106;28;20044;-62
2022/12/23 04:41:38;;;;;;;74.40;25.20;;;;;;;;;;5087475;28;20038;-62
2022/12/23 04:44:04;;;;;;;69.40;24.27;;;;;;;;;;5069098;28;20047;-62
2022/12/23 04:46:30;;;;;;;73.72;25.20;;;;;;;;;;5087322;28;20040;-63
2022/12/23 04:48:56;;;;;;;64.90;23.92;;;;;;;;;;5068824;28;20039;-62
2022/12/23 04:51:22;;;;;;;72.63;24.85;;;;;;;;;;5087130;28;20556;-63
2022/12/23 04:53:48;;;;;;;90.93;27.67;;;7.80;99.90;;;;;;5087220;28;20036;-60
2022/12/23 04:56:14;;;;;;;83.20;24.98;;;;;;;;;;5086920;28;20058;-63
2022/12/23 04:58:40;;;;;;;74.13;24.35;;;;;;;;;;5086730;28;20040;-63
2022/12/23 05:01:07;;;;;;;78.10;24.13;;;;;;;;;;5086775;28;20508;-62
2022/12/23 05:03:33;;;;;;;94.88;26.38;;;7.70;99.90;;;;;;5086945;28;20125;-62
2022/12/23 05:05:59;;;;;;;97.30;25.35;;;;;;;;;;5086686;28;20152;-61
2022/12/23 05:08:25;;;;;;;75.28;23.30;;;;;;;;;;5068447;28;20036;-62
2022/12/23 05:10:51;;;;;;;76.93;22.30;;;;;;;;;;5086418;28;20040;-62
2022/12/23 05:13:17;;;;;;;79.25;23.08;;;;;;;;;;5086839;28;20036;-62
2022/12/23 05:15:49;;;;;;;70.57;24.35;;;7.70;99.90;;;;;;5068535;28;20509;-62
2022/12/23 05:18:15;;;;;;;69.40;23.13;;;;;;;;;;5068463;28;20043;-62
2022/12/23 05:20:41;;;;;;;67.20;20.95;;;;;;;;;;5068593;28;20457;-63
2022/12/23 05:23:07;;;;;;;79.10;22.30;;;;;;;;;;5068255;28;20079;-62
2022/12/23 05:25:33;;;;;;;81.57;23.90;;;;;;;;;;5068357;28;20051;-60
2022/12/23 05:27:59;;;;;;;75.82;22.48;;;;;;;;;;5086157;28;20597;-62
2022/12/23 05:30:25;;;;;;;90.35;23.80;;;;;;;;;;5086414;28;20087;-61
2022/12/23 05:32:55;;;;;;;102.97;23.83;;;;;;;;;;5068046;28;20044;-63
2022/12/23 05:35:22;;;;;;;94.70;22.00;;;;;;;;;;5086278;28;20542;-63
2022/12/23 05:37:51;;;;;;;58.60;20.63;;;;;;;;;;5086278;28;20051;-62
2022/12/23 05:40:17;;;;;;;106.43;23.20;;;;;;;;;;5086416;28;20063;-61
2022/12/23 05:42:43;;;;;;;148.48;23.95;;;;;;;;;;5086385;28;20054;-62
2022/12/23 05:45:09;;;;;;;236.63;30.50;;;7.70;99.90;;;;;;5086119;28;20044;-61
2022/12/23 05:47:35;;;;;;;111.50;23.20;;;7.80;99.90;;;;;;5086294;28;20043;-60
2022/12/23 05:50:02;;;;;;;94.25;21.70;;;;;;;;;;5086099;28;20048;-62
2022/12/23 05:52:28;;;;;;;129.65;25.33;;;;;;;;;;5086265;28;20082;-63
2022/12/23 05:54:54;;;;;;;130.48;24.10;;;;;;;;;;5068190;28;20048;-60
2022/12/23 05:57:20;;;;;;;149.38;24.30;;;7.50;99.90;;;;;;5067848;28;20043;-62
2022/12/23 05:59:45;;;;;;;105.57;24.02;;;7.60;99.90;;;;;;5086310;28;20593;-62
2022/12/23 06:02:11;;;;;;;137.90;26.27;;;;;;;;;;5086135;28;20047;-62
2022/12/23 06:04:37;;;;;;;122.15;23.70;;;;;;;;;;5086082;28;20054;-62
2022/12/23 06:07:03;;;;;;;156.27;26.27;;;;;;;;;;5068223;28;20359;-63
2022/12/23 06:09:29;;;;;;;206.35;26.15;;;;;;;;;;5086273;28;20505;-62
2022/12/23 06:11:55;;;;;;;143.18;23.67;;;;;;;;;;5068295;28;20101;-63
2022/12/23 06:14:20;;;;;;;197.18;25.02;;;7.30;99.90;;;;;;5089913;28;20050;-61
2022/12/23 06:16:46;;;;;;;213.25;26.90;;;;;;;;;;5090084;28;20051;-63
2022/12/23 06:19:12;;;;;;;158.20;23.48;;;;;;;;;;5071361;28;20048;-62
2022/12/23 06:21:38;;;;;;;165.07;25.02;;;;;;;;;;5071504;28;20097;-63
2022/12/23 06:24:05;;;;;;;138.77;22.60;;;;;;;;;;5071476;28;20048;-62
2022/12/23 06:26:32;;;;;;;107.60;22.15;;;;;;;;;;5089854;28;20126;-62
2022/12/23 06:28:57;;;;;;;116.20;21.30;;;7.30;99.90;;;;;;5089903;28;20055;-60
2022/12/23 06:31:23;;;;;;;117.05;21.80;;;;;;;;;;5089488;28;20496;-62
2022/12/23 06:33:49;;;;;;;75.30;19.95;;;;;;;;;;5071409;28;20441;-61
2022/12/23 06:36:15;;;;;;;143.32;23.30;;;;;;;;;;5089955;28;20049;-62
2022/12/23 06:38:41;;;;;;;88.10;20.33;;;7.40;99.90;;;;;;5089464;28;20047;-63
2022/12/23 06:41:07;;;;;;;81.40;21.20;;;;;;;;;;5071304;28;20063;-63
2022/12/23 06:43:33;;;;;;;94.88;21.35;;;;;;;;;;5071247;28;20059;-62
2022/12/23 06:45:59;;;;;;;167.13;24.70;;;;;;;;;;5089775;28;20441;-61
2022/12/23 06:48:24;;;;;;;148.38;21.65;;;7.30;99.90;;;;;;5071238;28;20051;-60
2022/12/23 06:50:51;;;;;;;227.65;26.30;;;;;;;;;;5071696;28;20048;-62
2022/12/23 06:53:17;;;;;;;150.98;21.38;;;;;;;;;;5071593;28;20066;-63
2022/12/23 06:55:43;;;;;;;137.65;21.52;;;;;;;;;;5089929;28;20040;-62
2022/12/23 06:58:09;;;;;;;137.77;22.42;;;;;;;;;;5071556;28;20036;-62
2022/12/23 07:00:35;;;;;;;80.20;19.67;;;7.20;99.90;;;;;;5089616;28;20044;-62
2022/12/23 07:03:00;;;;;;;148.13;22.88;;;7.30;99.90;;;;;;5071521;28;20488;-62
2022/12/23 07:05:26;;;;;;;171.90;24.02;;;;;;;;;;5071615;28;20068;-63
2022/12/23 07:07:52;;;;;;;152.48;22.55;;;;;;;;;;5089477;28;20039;-62
2022/12/23 07:10:18;;;;;;;125.50;22.38;;;;;;;;;;5086107;28;20401;-62
2022/12/23 07:12:44;;;;;;;119.13;20.98;;;7.30;99.90;;;;;;5071530;28;20036;-62
2022/12/23 07:15:10;;;;;;;91.03;18.38;;;;;;;;;;5089701;28;20044;-61
2022/12/23 07:17:36;;;;;;;96.97;19.67;;;;;;;;;;5089150;28;20040;-62
2022/12/23 07:20:02;;;;;;;114.30;21.20;;;;;;;;;;5071671;28;20040;-63
2022/12/23 07:22:28;;;;;;;67.38;18.80;;;;;;;;;;5071419;28;20048;-62
2022/12/23 07:24:54;;;;;;;59.45;18.20;;;7.40;99.90;;;;;;5089631;28;20036;-62
2022/12/23 07:27:19;;;;;;;56.22;17.85;;;7.30;99.90;;;;;;5089891;28;20108;-60
2022/12/23 07:29:45;;;;;;;71.30;19.30;;;;;;;;;;5071050;28;20136;-65
2022/12/23 07:32:11;;;;;;;54.92;17.40;;;;;;;;;;5071511;28;20071;-63
2022/12/23 07:34:37;;;;;;;43.50;17.50;;;7.30;99.90;;;;;;5103816;28;20066;-62
2022/12/23 07:37:03;;;;;;;104.35;20.40;;;;;;;;;;5105512;28;20051;-62
2022/12/23 07:39:29;;;;;;;44.47;16.58;;;;;;;;;;5107319;28;20043;-63
2022/12/23 07:41:55;;;;;;;56.40;16.45;;;;;;;;;;5067350;28;20044;-62
2022/12/23 07:44:21;;;;;;;40.58;15.40;;;;;;;;;;5059628;28;20055;-64
2022/12/23 07:46:47;;;;;;;47.78;17.30;;;;;;;;;;5078751;28;20040;-62
2022/12/23 07:49:12;;;;;;;58.75;17.95;;;7.30;99.90;;;;;;5084776;28;20359;-63
2022/12/23 07:51:38;;;;;;;63.65;18.02;;;;;;;;;;5076705;28;20485;-63
2022/12/23 07:54:04;;;;;;;49.35;17.73;;;;;;;;;;5087914;28;20043;-61
2022/12/23 07:56:30;;;;;;;51.40;16.27;;;;;;;;;;5085317;28;20042;-60
2022/12/23 07:58:57;;;;;;;47.15;17.05;;;;;;;;;;5104769;28;20067;-63
2022/12/23 08:01:23;;;;;;;51.78;17.55;;;;;;;;;;5097588;28;20044;-63
2022/12/23 08:03:49;;;;;;;49.30;16.90;;;;;;;;;;5072464;28;20719;-63
2022/12/23 08:06:15;;;;;;;38.63;14.77;;;;;;;;;;5085972;28;20084;-62
2022/12/23 08:08:43;;;;;;;34.97;16.13;;;;;;;;;;5087822;28;20035;-61
2022/12/23 08:11:11;;;;;;;37.78;15.35;;;7.40;99.90;;;;;;5078351;28;20116;-62
2022/12/23 08:13:38;;;;;;;38.65;14.57;;;;;;;;;;5083352;28;20044;-63
2022/12/23 08:16:04;;;;;;;44.78;15.90;;;;;;;;;;5080164;28;20047;-63
2022/12/23 08:18:31;;;;;;;38.47;13.95;;;;;;;;;;5077135;28;20032;-63
2022/12/23 08:20:58;;;;;;;88.93;17.45;;;;;;;;;;5058261;28;20146;-63
2022/12/23 08:23:24;;;;;;;43.10;13.70;;;;;;;;;;5097385;28;20040;-62
2022/12/23 08:26:16;;;;;;;28.88;12.98;;;7.30;99.90;;;;;;5089133;28;20439;-63
2022/12/23 08:28:42;;;;;;;32.67;11.48;;;;;;;;;;5063734;28;20035;-62
2022/12/23 08:31:22;;;;;;;49.70;13.23;;;;;;;;;;5093527;28;20055;-64
2022/12/23 08:33:49;;;;;;;35.45;13.57;;;;;;;;;;5080004;28;20720;-64
2022/12/23 08:36:17;;;;;;;30.58;12.65;;;;;;;;;;5080442;28;20150;-62
2022/12/23 08:38:43;;;;;;;33.85;13.75;;;;;;;;;;5082065;28;20039;-62
2022/12/23 08:41:10;;;;;;;41.03;13.95;;;;;;;;;;5087601;28;20494;-64
2022/12/23 08:43:35;;;;;;;35.30;13.45;;;7.40;99.90;;;;;;5098731;28;20089;-65
2022/12/23 08:46:02;;;;;;;31.02;12.63;;;7.30;99.90;;;;;;5087470;28;20044;-64
2022/12/23 08:48:28;;;;;;;30.45;13.40;;;;;;;;;;5085315;28;20520;-63
2022/12/23 08:50:54;;;;;;;29.30;12.57;;;;;;;;;;5087199;28;20048;-63
2022/12/23 08:53:19;;;;;;;28.40;12.27;;;;;;;;;;5073047;28;20445;-64
2022/12/23 08:55:46;;;;;;;40.92;14.52;;;7.40;99.90;;;;;;5099214;28;20036;-64
2022/12/23 08:58:13;;;;;;;65.95;16.15;;;;;;;;;;5089676;28;20062;-62
2022/12/23 09:00:39;;;;;;;59.30;14.98;;;;;;;;;;5079432;28;20043;-63
2022/12/23 09:03:05;;;;;;;46.97;14.57;;;;;;;;;;5086689;28;20597;-64
2022/12/23 09:05:32;;;;;;;37.72;13.98;;;7.50;99.90;;;;;;5068537;28;20059;-64
2022/12/23 09:07:58;;;;;;;36.90;14.00;;;;;;;;;;5086744;28;20118;-63
2022/12/23 09:10:24;;;;;;;29.35;13.25;;;;;;;;;;5078984;28;21111;-64
2022/12/23 09:12:51;;;;;;;34.10;13.32;;;;;;;;;;5068797;28;20175;-63
2022/12/23 09:15:17;;;;;;;33.85;14.10;;;;;;;;;;5068206;28;20394;-63
2022/12/23 09:17:43;;;;;;;32.13;13.75;;;;;;;;;;5086952;28;20040;-63
2022/12/23 09:20:10;;;;;;;35.17;14.10;;;;;;;;;;5087019;28;20415;-63
2022/12/23 09:22:36;;;;;;;60.80;16.63;;;;;;;;;;5095530;28;20688;-62
2022/12/23 09:25:01;;;;;;;30.35;13.15;;;7.60;99.90;;;;;;5086582;28;20039;-62
2022/12/23 09:27:27;;;;;;;40.97;13.10;;;;;;;;;;5086740;28;20047;-63
2022/12/23 09:29:53;;;;;;;38.92;15.98;;;;;;;;;;5096041;28;20704;-64
2022/12/23 09:32:19;;;;;;;33.33;13.07;;;;;;;;;;5084273;28;20047;-63
2022/12/23 09:34:45;;;;;;;46.63;14.35;;;;;;;;;;5081129;28;20051;-62
2022/12/23 09:37:15;;;;;;;36.92;12.73;;;;;;;;;;5101825;28;20128;-62
2022/12/23 09:39:41;;;;;;;44.35;13.88;;;;;;;;;;5103545;28;20638;-60
2022/12/23 09:42:37;;;;;;;60.90;14.73;;;7.80;99.90;;;;;;5097048;28;20553;-59
2022/12/23 09:45:13;;;;;;;43.03;12.80;;;;;;;;;;5082812;28;20675;-59
2022/12/23 09:47:40;;;;;;;37.20;12.65;;;;;;;;;;5082876;28;20556;-61
2022/12/23 09:50:27;;;;;;;39.33;12.82;;;;;;;;;;5104184;28;20046;-62
2022/12/23 09:52:59;;;;;;;30.75;12.57;;;;;;;;;;5107323;28;20043;-62
2022/12/23 09:55:31;;;;;;;30.60;11.63;;;;;;;;;;5102515;28;20402;-62
2022/12/23 09:57:59;;;;;;;33.20;12.57;;;;;;;;;;5103796;28;20043;-62
2022/12/23 10:00:33;;;;;;;29.73;11.88;;;7.90;99.90;;;;;;5086568;28;20572;-63
2022/12/23 10:03:05;;;;;;;29.85;11.93;;;;;;;;;;5090255;28;20473;-62
2022/12/23 10:05:31;;;;;;;23.58;11.65;;;;;;;;;;5090092;28;20056;-62
2022/12/23 10:08:09;;;;;;;27.63;10.70;;;;;;;;;;5073015;28;20122;-62
2022/12/23 10:10:52;;;;;;;27.60;10.20;;;;;;;;;;5073548;28;20047;-64
2022/12/23 10:13:34;;;;;;;26.38;9.80;;;8.00;99.90;;;;;;5079901;28;20557;-62
2022/12/23 10:16:04;;;;;;;25.63;9.80;;;;;;;;;;5087752;28;20056;-64
2022/12/23 10:18:52;;;;;;;28.23;10.85;;;7.90;99.90;;;;;;5078364;28;20040;-63
2022/12/23 10:21:30;;;;;;;28.33;10.10;;;;;;;;;;5089764;28;20044;-63
2022/12/23 10:23:59;;;;;;;35.53;11.98;;;;;;;;;;5066733;28;20101;-63
2022/12/23 10:26:28;;;;;;;22.42;9.82;;;;;;;;;;5089460;28;20509;-63
2022/12/23 10:29:01;;;;;;;25.67;9.75;;;;;;;;;;5074164;28;20489;-63
2022/12/23 10:31:36;;;;;;;27.20;10.25;;;;;;;;;;5089550;28;20078;-63
2022/12/23 10:34:14;;;;;;;21.67;9.88;;;;;;;;;;5075084;28;20058;-62
2022/12/23 10:37:00;;;;;;;21.23;8.75;;;;;;;;;;5087887;28;20040;-64
2022/12/23 10:39:26;;;;;;;;;;;;;;;;;;5080864;28;20091;-61
2022/12/23 10:42:11;;;;;;;24.88;9.13;;;8.00;99.90;;;;;;5084737;28;19920;-62
2022/12/23 10:44:59;;;;;;;26.83;10.75;;;;;;;;;;5082858;28;20047;-63
2022/12/23 10:47:32;;;;;;;18.90;8.52;;;;;;;;;;5080314;28;20056;-62
2022/12/23 10:50:16;;;;;;;27.33;11.15;;;;;;;;;;5089156;28;20050;-62
2022/12/23 10:52:44;;;;;;;25.00;10.48;;;7.80;99.90;;;;;;5065559;28;20149;-61
2022/12/23 10:55:25;;;;;;;25.50;9.15;;;8.10;99.90;;;;;;5089134;28;20731;-62
2022/12/23 10:57:51;;;;;;;25.33;10.85;;;;;;;;;;5095819;28;20082;-63
2022/12/23 11:00:21;;;;;;;24.85;11.23;;;8.00;99.90;;;;;;5103587;28;20116;-62
2022/12/23 11:03:02;;;;;;;27.45;11.20;;;;;;;;;;5099962;28;20036;-62
2022/12/23 11:05:29;;;;;;;23.40;10.43;;;7.90;99.90;;;;;;5084344;28;20126;-62
2022/12/23 11:07:55;;;;;;;29.75;11.15;;;;;;;;;;5071936;28;20046;-63
2022/12/23 11:10:25;;;;;;;28.90;11.77;;;;;;;;;;5082944;28;20814;-65
2022/12/23 11:12:52;;;;;;;26.23;10.85;;;;;;;;;;5080073;28;20103;-64
2022/12/23 11:15:27;;;;;;;25.80;10.80;;;;;;;;;;5097401;28;20051;-63
2022/12/23 11:18:11;;;;;;;29.10;11.88;;;7.90;99.90;;;;;;5068609;28;20498;-63
2022/12/23 11:20:37;;;;;;;28.10;10.95;;;;;;;;;;5055000;28;20048;-64
2022/12/23 11:23:05;;;;;;;28.70;11.95;;;8.00;99.90;;;;;;5086158;28;20047;-63
2022/12/23 11:25:32;;;;;;;30.42;11.80;;;;;;;;;;5088748;28;20083;-64
2022/12/23 11:28:02;;;;;;;24.77;10.63;;;;;;;;;;5088064;28;20047;-63
2022/12/23 11:30:30;;;;;;;30.98;10.88;;;;;;;;;;5085577;28;20062;-63
2022/12/23 11:32:57;;;;;;;21.90;10.93;;;;;;;;;;5092513;28;20751;-62
2022/12/23 11:35:35;;;;;;;22.60;9.98;;;8.20;99.90;;;;;;5088659;28;20109;-63
2022/12/23 11:38:02;;;;;;;24.25;10.48;;;;;;;;;;5088401;28;20467;-64
2022/12/23 11:40:36;;;;;;;27.77;11.68;;;8.10;99.90;;;;;;5088419;28;20823;-64
2022/12/23 11:43:04;;;;;;;28.05;11.60;;;;;;;;;;5080996;28;20043;-62
2022/12/23 11:45:33;;;;;;;25.42;11.68;;;;;;;;;;5086099;28;20048;-64
2022/12/23 11:47:59;;;;;;;27.20;11.45;;;8.10;99.90;;;;;;5088084;28;20418;-63
2022/12/23 11:50:38;;;;;;;27.90;10.85;;;;;;;;;;5100001;28;20040;-62
2022/12/23 11:53:19;;;;;;;25.92;11.55;;;;;;;;;;5081510;28;20089;-63
2022/12/23 11:55:57;;;;;;;27.40;11.10;;;;;;;;;;5085289;28;20065;-62
2022/12/23 11:58:24;;;;;;;19.70;10.65;;;;;;;;;;5102642;28;20039;-63
2022/12/23 12:01:05;;;;;;;25.48;11.57;;;8.10;99.90;;;;;;5074280;28;20554;-64
2022/12/23 12:03:34;;;;;;;25.92;12.55;;;;;;;;;;5085891;28;20501;-64
2022/12/23 12:06:04;;;;;;;26.42;11.10;;;;;;;;;;5101526;28;20031;-64
2022/12/23 12:08:32;;;;;;;24.13;9.85;;;;;;;;;;5103982;28;20028;-64
2022/12/23 12:11:05;;;;;;;28.80;11.10;;;8.20;99.90;;;;;;5085726;28;20092;-63
2022/12/23 12:13:39;;;;;;;22.52;11.00;;;;;;;;;;5106158;28;20081;-64
2022/12/23 12:16:14;;;;;;;28.38;11.75;;;;;;;;;;5086606;28;20036;-64
2022/12/23 12:18:40;;;;;;;;;;;8.40;99.90;;;;;;5088369;28;20405;-64
2022/12/23 12:21:12;;;;;;;21.65;11.32;;;8.20;99.90;;;;;;5087730;28;20309;-64
2022/12/23 12:23:49;;;;;;;19.60;9.70;;;;;;;;;;5087898;28;20059;-63
2022/12/23 12:26:23;;;;;;;25.40;11.88;;;;;;;;;;5088258;28;20039;-64
2022/12/23 12:29:00;;;;;;;26.90;11.40;;;8.20;99.90;;;;;;5072491;28;20036;-64
2022/12/23 12:31:33;;;;;;;26.88;11.00;;;;;;;;;;5070693;28;20106;-65
2022/12/23 12:34:27;;;;;;;22.77;10.45;;;8.20;99.90;;;;;;5063839;28;20511;-64
2022/12/23 12:36:59;;;;;;;21.92;10.77;;;;;;;;;;5066674;28;20116;-64
2022/12/23 12:39:34;;;;;;;23.35;10.25;;;8.10;99.90;;;;;;5066007;28;20056;-64
2022/12/23 12:42:00;;;;;;;;;;;;;;;;;;5067740;28;20040;-64
2022/12/23 12:44:33;;;;;;;23.55;10.30;;;;;;;;;;5066934;28;19966;-65
2022/12/23 12:47:11;;;;;;;22.50;9.57;;;8.20;99.90;;;;;;5065629;28;20041;-64
2022/12/23 12:49:40;;;;;;;19.92;10.60;;;;;;;;;;5074471;28;20040;-64
2022/12/23 12:52:12;;;;;;;20.05;9.55;;;;;;;;;;5080555;28;20120;-64
2022/12/23 12:54:53;;;;;;;25.27;10.88;;;8.20;99.90;;;;;;5057266;28;20395;-64
2022/12/23 12:57:20;;;;;;;22.58;11.43;;;;;;;;;;5068860;28;20055;-64
2022/12/23 12:59:52;;;;;;;23.20;11.25;;;;;;;;;;5084129;28;20067;-64
2022/12/23 13:02:37;;;;;;;23.67;10.57;;;;;;;;;;5078777;28;20091;-64
2022/12/23 13:05:19;;;;;;;20.73;10.80;;;;;;;;;;5066208;28;20134;-64
2022/12/23 13:07:48;;;;;;;22.98;11.30;;;;;;;;;;5082021;28;20036;-63
2022/12/23 13:10:53;;;;;;;23.85;12.82;;;;;;;;;;5072498;28;20047;-63
2022/12/23 13:13:35;;;;;;;22.45;11.65;;;;;;;;;;5005540;28;20037;-62
2022/12/23 13:16:13;;;;;;;20.88;10.80;;;;;;;;;;5007731;28;20121;-63
2022/12/23 13:18:46;;;;;;;28.63;12.55;;;;;;;;;;5041753;28;20414;-64
2022/12/23 13:21:15;;;;;;;29.02;13.10;;;;;;;;;;5065100;28;20040;-63
2022/12/23 13:23:41;;;;;;;26.83;13.05;;;;;;;;;;5066614;28;20105;-63
2022/12/23 13:26:21;;;;;;;26.90;13.35;;;;;;;;;;5065423;28;20051;-61
2022/12/23 13:28:47;;;;;;;32.20;14.30;;;;;;;;;;5061970;28;20040;-63
2022/12/23 13:31:16;;;;;;;28.75;14.50;;;;;;;;;;5065279;28;20048;-63
2022/12/23 13:33:51;;;;;;;35.35;14.48;;;;;;;;;;5065423;28;20067;-63
2022/12/23 13:36:34;;;;;;;;;;;8.00;99.90;;;;;;5065641;28;20123;-63
2022/12/23 13:39:19;;;;;;;20.98;9.70;;;;;;;;;;5065368;28;20025;-62
2022/12/23 13:41:47;;;;;;;23.73;12.57;;;;;;;;;;5067036;28;20090;-64
2022/12/23 13:44:14;;;;;;;31.77;14.52;;;;;;;;;;5079770;28;20454;-63
2022/12/23 13:47:04;;;;;;;23.35;12.80;;;;;;;;;;5076832;28;20139;-64
2022/12/23 13:49:37;;;;;;;22.67;11.32;;;8.00;99.90;;;;;;5081114;28;20040;-63
2022/12/23 13:52:12;;;;;;;26.30;12.98;;;;;;;;;;5082426;28;20497;-64
2022/12/23 13:54:38;;;;;;;;;;;;;;;;;;5057436;28;20056;-64
2022/12/23 13:57:07;;;;;;;26.60;12.00;;;;;;;;;;5063904;28;19973;-63
2022/12/23 13:59:40;;;;;;;26.20;12.18;;;;;;;;;;5068044;28;20083;-63
2022/12/23 14:02:25;;;;;;;27.90;12.65;;;;;;;;;;5075930;28;20034;-63
2022/12/23 14:04:58;;;;;;;25.83;12.18;;;;;;;;;;5050213;28;20052;-63
2022/12/23 14:07:26;;;;;;;21.00;11.48;;;;;;;;;;5065359;28;20902;-63
2022/12/23 14:10:12;;;;;;;25.90;11.35;;;;;;;;;;5076765;28;20078;-63
2022/12/23 14:12:41;;;;;;;24.73;10.95;;;;;;;;;;5076815;28;20044;-62
2022/12/23 14:15:34;;;;;;;24.88;11.00;;;;;;;;;;5073419;28;20132;-63
2022/12/23 14:18:06;;;;;;;22.95;11.45;;;;;;;;;;5063492;28;20111;-63
2022/12/23 14:21:01;;;;;;;21.20;10.23;;;;;;;;;;5054623;28;20044;-63
2022/12/23 14:23:33;;;;;;;23.63;11.43;;;;;;;;;;5044399;28;20091;-64
2022/12/23 14:26:06;;;;;;;19.88;10.48;;;;;;;;;;5063542;28;20055;-63
2022/12/23 14:28:50;;;;;;;22.67;11.02;;;;;;;;;;5060896;28;20047;-63
2022/12/23 14:31:35;;;;;;;21.50;10.30;;;;;;;;;;5065981;28;20075;-62